N70CR MUCU-MUHA
Flight info
| Callsign | N70CR |
|---|---|
| Flight time | N/A |
| Altitude | 39000 |
| Route | KUBOS4C PUTIM J3 AVEPI DUTAN1A |
| Aircraft | C700/M-SBDGHM1RWXY/LB2 |
Departure
| Time | 2026-04-24 16:03 |
|---|---|
| Airport | Antonio Maceo International Airport (MUCU) |
Arrival
| Time | N/A |
|---|---|
| Airport | José Martí International Airport (MUHA) |
| Time | Latitude | Longitude | Altitude | Speed | Heading |
|---|---|---|---|---|---|
| 2026-04-24 15:54 | 19.97160 | -75.83700 | 216 ft | 0 kts | 90° |
| 2026-04-24 15:56 | 19.97158 | -75.83696 | 216 ft | 4 kts | 123° |
| 2026-04-24 15:56 | 19.97141 | -75.83659 | 217 ft | 7 kts | 92° |
| 2026-04-24 15:56 | 19.97141 | -75.83602 | 217 ft | 6 kts | 89° |
| 2026-04-24 15:57 | 19.97138 | -75.83557 | 218 ft | 7 kts | 114° |
| 2026-04-24 15:57 | 19.97090 | -75.83543 | 220 ft | 8 kts | 184° |
| 2026-04-24 15:57 | 19.97028 | -75.83548 | 221 ft | 10 kts | 176° |
| 2026-04-24 15:57 | 19.96988 | -75.83489 | 221 ft | 13 kts | 88° |
| 2026-04-24 15:58 | 19.96989 | -75.83377 | 220 ft | 17 kts | 89° |
| 2026-04-24 15:58 | 19.96991 | -75.83241 | 221 ft | 20 kts | 91° |
| 2026-04-24 15:58 | 19.96989 | -75.83090 | 223 ft | 21 kts | 84° |
| 2026-04-24 15:58 | 19.96996 | -75.82934 | 225 ft | 15 kts | 87° |
| 2026-04-24 15:59 | 19.96996 | -75.82817 | 227 ft | 17 kts | 90° |
| 2026-04-24 15:59 | 19.96993 | -75.82690 | 231 ft | 17 kts | 92° |
| 2026-04-24 15:59 | 19.96998 | -75.82559 | 235 ft | 18 kts | 89° |
| 2026-04-24 15:59 | 19.96996 | -75.82422 | 238 ft | 19 kts | 92° |
| 2026-04-24 16:00 | 19.96998 | -75.82277 | 242 ft | 20 kts | 89° |
| 2026-04-24 16:00 | 19.97001 | -75.82129 | 246 ft | 20 kts | 88° |
| 2026-04-24 16:00 | 19.97002 | -75.81975 | 249 ft | 22 kts | 90° |
| 2026-04-24 16:00 | 19.97006 | -75.81838 | 251 ft | 11 kts | 90° |
| 2026-04-24 16:01 | 19.97017 | -75.81752 | 252 ft | 13 kts | 50° |
| 2026-04-24 16:01 | 19.97040 | -75.81697 | 253 ft | 8 kts | 101° |
| 2026-04-24 16:01 | 19.97000 | -75.81694 | 253 ft | 8 kts | 247° |
| 2026-04-24 16:01 | 19.97004 | -75.81771 | 252 ft | 11 kts | 275° |
| 2026-04-24 16:02 | 19.97005 | -75.81795 | 251 ft | 0 kts | 268° |
| 2026-04-24 16:02 | 19.97002 | -75.81921 | 250 ft | 57 kts | 269° |
| 2026-04-24 16:03 | 19.96990 | -75.82745 | 278 ft | 158 kts | 268° |
| 2026-04-24 16:03 | 19.96971 | -75.84078 | 999 ft | 206 kts | 268° |
| 2026-04-24 16:03 | 19.96667 | -75.85695 | 2075 ft | 234 kts | 238° |
| 2026-04-24 16:03 | 19.95612 | -75.87067 | 3461 ft | 254 kts | 234° |
| 2026-04-24 16:04 | 19.94900 | -75.88705 | 5217 ft | 240 kts | 252° |
| 2026-04-24 16:04 | 19.94558 | -75.90462 | 6728 ft | 255 kts | 262° |
| 2026-04-24 16:04 | 19.94369 | -75.92405 | 7842 ft | 270 kts | 261° |
| 2026-04-24 16:04 | 19.94016 | -75.94414 | 9040 ft | 286 kts | 255° |
| 2026-04-24 16:05 | 19.92844 | -75.98527 | 11586 ft | 269 kts | 252° |
| 2026-04-24 16:05 | 19.92355 | -76.00411 | 13051 ft | 264 kts | 255° |
| 2026-04-24 16:06 | 19.91421 | -76.04171 | 15892 ft | 264 kts | 253° |
| 2026-04-24 16:06 | 19.90925 | -76.06063 | 17075 ft | 272 kts | 253° |
| 2026-04-24 16:06 | 19.90135 | -76.10334 | 18744 ft | 314 kts | 275° |
| 2026-04-24 16:07 | 19.90945 | -76.12508 | 19932 ft | 324 kts | 297° |
| 2026-04-24 16:07 | 19.92176 | -76.14533 | 20794 ft | 341 kts | 300° |
| 2026-04-24 16:07 | 19.94792 | -76.18996 | 22086 ft | 359 kts | 296° |
| 2026-04-24 16:08 | 19.96062 | -76.21284 | 23307 ft | 362 kts | 297° |
| 2026-04-24 16:08 | 19.98731 | -76.25934 | 25143 ft | 372 kts | 297° |
| 2026-04-24 16:09 | 20.01435 | -76.30696 | 27053 ft | 380 kts | 296° |
| 2026-04-24 16:09 | 20.02810 | -76.33117 | 27937 ft | 385 kts | 296° |
| 2026-04-24 16:09 | 20.04184 | -76.35529 | 28818 ft | 389 kts | 296° |
| 2026-04-24 16:09 | 20.05594 | -76.38010 | 29702 ft | 394 kts | 296° |
| 2026-04-24 16:10 | 20.09897 | -76.45590 | 31998 ft | 404 kts | 294° |
| 2026-04-24 16:11 | 20.12823 | -76.50741 | 33274 ft | 410 kts | 294° |
| 2026-04-24 16:11 | 20.14303 | -76.53353 | 33934 ft | 413 kts | 294° |
| 2026-04-24 16:11 | 20.15771 | -76.55945 | 34510 ft | 416 kts | 294° |
| 2026-04-24 16:12 | 20.18781 | -76.61266 | 35639 ft | 423 kts | 293° |
| 2026-04-24 16:12 | 20.20307 | -76.63958 | 36155 ft | 426 kts | 293° |
| 2026-04-24 16:12 | 20.23382 | -76.69399 | 37092 ft | 432 kts | 292° |
| 2026-04-24 16:13 | 20.24940 | -76.72158 | 37234 ft | 439 kts | 292° |
| 2026-04-24 16:13 | 20.28070 | -76.77688 | 37029 ft | 433 kts | 292° |
| 2026-04-24 16:14 | 20.31140 | -76.83145 | 37439 ft | 434 kts | 292° |
| 2026-04-24 16:14 | 20.32698 | -76.85906 | 37913 ft | 436 kts | 292° |
| 2026-04-24 16:14 | 20.35834 | -76.91469 | 38636 ft | 440 kts | 292° |
| 2026-04-24 16:15 | 20.36877 | -76.93323 | 38822 ft | 441 kts | 292° |
| 2026-04-24 16:15 | 20.40587 | -76.99913 | 38981 ft | 441 kts | 292° |
| 2026-04-24 16:16 | 20.45273 | -77.08260 | 38979 ft | 439 kts | 292° |
| 2026-04-24 16:17 | 20.53075 | -77.22171 | 38988 ft | 438 kts | 292° |
| 2026-04-24 16:18 | 20.59319 | -77.33332 | 38997 ft | 438 kts | 292° |
| 2026-04-24 16:19 | 20.64005 | -77.41723 | 38998 ft | 439 kts | 292° |
| 2026-04-24 16:20 | 20.68693 | -77.50130 | 38995 ft | 439 kts | 292° |
| 2026-04-24 16:20 | 20.72718 | -77.58749 | 39000 ft | 433 kts | 286° |
| 2026-04-24 16:21 | 20.76410 | -77.67560 | 39001 ft | 433 kts | 286° |
| 2026-04-24 16:22 | 20.78861 | -77.73447 | 38998 ft | 434 kts | 287° |
| 2026-04-24 16:22 | 20.82538 | -77.82287 | 38998 ft | 434 kts | 287° |
| 2026-04-24 16:23 | 20.84976 | -77.88153 | 38998 ft | 435 kts | 287° |
| 2026-04-24 16:24 | 20.88656 | -77.97024 | 38996 ft | 435 kts | 287° |
| 2026-04-24 16:24 | 20.91110 | -78.02951 | 39000 ft | 436 kts | 287° |
| 2026-04-24 16:25 | 20.93566 | -78.08882 | 38998 ft | 436 kts | 287° |
| 2026-04-24 16:25 | 20.96000 | -78.14777 | 39002 ft | 437 kts | 287° |
| 2026-04-24 16:26 | 20.99682 | -78.23696 | 39000 ft | 437 kts | 287° |
| 2026-04-24 16:27 | 21.03358 | -78.32619 | 38998 ft | 437 kts | 287° |
| 2026-04-24 16:27 | 21.05788 | -78.38529 | 38998 ft | 437 kts | 287° |
| 2026-04-24 16:28 | 21.08236 | -78.44483 | 38997 ft | 437 kts | 287° |
| 2026-04-24 16:28 | 21.11897 | -78.53409 | 38999 ft | 436 kts | 287° |
| 2026-04-24 16:29 | 21.14333 | -78.59356 | 38999 ft | 436 kts | 287° |
| 2026-04-24 16:30 | 21.19390 | -78.71136 | 38990 ft | 437 kts | 289° |
| 2026-04-24 16:30 | 21.21953 | -78.77037 | 38991 ft | 437 kts | 289° |
| 2026-04-24 16:31 | 21.24521 | -78.82932 | 38996 ft | 436 kts | 289° |
| 2026-04-24 16:31 | 21.27062 | -78.88788 | 38997 ft | 436 kts | 289° |
| 2026-04-24 16:32 | 21.29620 | -78.94683 | 39000 ft | 436 kts | 289° |
| 2026-04-24 16:32 | 21.32176 | -79.00583 | 39000 ft | 436 kts | 289° |
| 2026-04-24 16:33 | 21.34729 | -79.06480 | 39000 ft | 436 kts | 289° |
| 2026-04-24 16:33 | 21.37280 | -79.12381 | 39005 ft | 436 kts | 289° |
| 2026-04-24 16:34 | 21.39808 | -79.18234 | 39001 ft | 435 kts | 289° |
| 2026-04-24 16:34 | 21.42349 | -79.24124 | 39000 ft | 434 kts | 289° |
| 2026-04-24 16:35 | 21.44882 | -79.30003 | 39004 ft | 434 kts | 289° |
| 2026-04-24 16:35 | 21.47412 | -79.35885 | 39001 ft | 434 kts | 289° |
| 2026-04-24 16:36 | 21.49919 | -79.41716 | 39008 ft | 433 kts | 289° |
| 2026-04-24 16:36 | 21.52439 | -79.47586 | 39003 ft | 432 kts | 289° |
| 2026-04-24 16:37 | 21.54953 | -79.53447 | 38998 ft | 432 kts | 289° |
| 2026-04-24 16:37 | 21.57462 | -79.59306 | 38998 ft | 431 kts | 289° |
| 2026-04-24 16:38 | 21.59968 | -79.65162 | 39004 ft | 431 kts | 289° |
| 2026-04-24 16:38 | 21.62456 | -79.70984 | 39000 ft | 431 kts | 289° |
| 2026-04-24 16:39 | 21.64955 | -79.76838 | 39004 ft | 431 kts | 289° |
| 2026-04-24 16:39 | 21.67453 | -79.82698 | 38998 ft | 431 kts | 289° |
| 2026-04-24 16:40 | 21.69944 | -79.88546 | 39004 ft | 430 kts | 289° |
| 2026-04-24 16:40 | 21.72412 | -79.94354 | 39010 ft | 430 kts | 289° |
| 2026-04-24 16:41 | 21.74893 | -80.00197 | 39012 ft | 429 kts | 289° |
| 2026-04-24 16:41 | 21.77367 | -80.06030 | 39006 ft | 429 kts | 289° |
| 2026-04-24 16:42 | 21.79839 | -80.11862 | 39006 ft | 428 kts | 289° |
| 2026-04-24 16:42 | 21.82287 | -80.17650 | 39007 ft | 427 kts | 289° |
| 2026-04-24 16:43 | 21.84743 | -80.23462 | 39002 ft | 427 kts | 290° |
| 2026-04-24 16:43 | 21.87199 | -80.29280 | 39006 ft | 426 kts | 290° |
| 2026-04-24 16:44 | 21.89649 | -80.35088 | 38996 ft | 426 kts | 290° |
| 2026-04-24 16:44 | 21.92093 | -80.40892 | 38994 ft | 426 kts | 290° |
| 2026-04-24 16:45 | 21.94518 | -80.46657 | 38997 ft | 425 kts | 290° |
| 2026-04-24 16:45 | 21.96955 | -80.52456 | 38995 ft | 425 kts | 290° |
| 2026-04-24 16:46 | 21.99388 | -80.58255 | 38997 ft | 424 kts | 290° |
| 2026-04-24 16:46 | 22.01818 | -80.64051 | 38997 ft | 424 kts | 290° |
| 2026-04-24 16:47 | 22.04227 | -80.69804 | 38993 ft | 424 kts | 290° |
| 2026-04-24 16:47 | 22.06644 | -80.75582 | 38892 ft | 421 kts | 290° |
| 2026-04-24 16:48 | 22.07847 | -80.78460 | 38407 ft | 419 kts | 289° |
| 2026-04-24 16:48 | 22.09034 | -80.81303 | 37862 ft | 413 kts | 289° |
| 2026-04-24 16:48 | 22.10209 | -80.84118 | 37335 ft | 410 kts | 289° |
| 2026-04-24 16:48 | 22.11380 | -80.86927 | 36820 ft | 411 kts | 289° |
| 2026-04-24 16:49 | 22.12553 | -80.89743 | 36323 ft | 413 kts | 289° |
| 2026-04-24 16:49 | 22.13715 | -80.92531 | 35843 ft | 412 kts | 289° |
| 2026-04-24 16:49 | 22.14882 | -80.95325 | 35357 ft | 406 kts | 289° |
| 2026-04-24 16:49 | 22.16032 | -80.98090 | 34814 ft | 402 kts | 289° |
| 2026-04-24 16:50 | 22.16802 | -80.99946 | 34464 ft | 401 kts | 289° |
| 2026-04-24 16:50 | 22.18316 | -81.03591 | 33727 ft | 403 kts | 289° |
| 2026-04-24 16:50 | 22.19467 | -81.06365 | 33130 ft | 407 kts | 290° |
| 2026-04-24 16:50 | 22.20631 | -81.09166 | 32551 ft | 411 kts | 290° |
| 2026-04-24 16:51 | 22.21806 | -81.11996 | 31841 ft | 416 kts | 290° |
| 2026-04-24 16:51 | 22.22974 | -81.14815 | 31133 ft | 419 kts | 290° |
| 2026-04-24 16:51 | 22.24172 | -81.17705 | 30429 ft | 424 kts | 291° |
| 2026-04-24 16:51 | 22.25383 | -81.20627 | 29688 ft | 428 kts | 291° |
| 2026-04-24 16:52 | 22.26597 | -81.23555 | 28895 ft | 426 kts | 291° |
| 2026-04-24 16:52 | 22.27803 | -81.26470 | 28038 ft | 423 kts | 291° |
| 2026-04-24 16:52 | 22.28995 | -81.29354 | 27167 ft | 419 kts | 291° |
| 2026-04-24 16:52 | 22.30176 | -81.32209 | 26310 ft | 414 kts | 291° |
| 2026-04-24 16:53 | 22.31341 | -81.35034 | 25485 ft | 410 kts | 291° |
| 2026-04-24 16:53 | 22.32497 | -81.37834 | 24679 ft | 407 kts | 291° |
| 2026-04-24 16:53 | 22.33627 | -81.40574 | 23909 ft | 403 kts | 291° |
| 2026-04-24 16:53 | 22.34763 | -81.43329 | 23055 ft | 400 kts | 291° |
| 2026-04-24 16:54 | 22.35890 | -81.46064 | 22155 ft | 396 kts | 291° |
| 2026-04-24 16:54 | 22.37001 | -81.48762 | 21282 ft | 391 kts | 291° |
| 2026-04-24 16:54 | 22.38098 | -81.51428 | 20431 ft | 386 kts | 292° |
| 2026-04-24 16:54 | 22.39182 | -81.54063 | 19608 ft | 382 kts | 292° |
| 2026-04-24 16:55 | 22.40253 | -81.56668 | 18804 ft | 378 kts | 292° |
| 2026-04-24 16:55 | 22.41313 | -81.59249 | 17978 ft | 374 kts | 292° |
| 2026-04-24 16:55 | 22.42351 | -81.61775 | 17095 ft | 371 kts | 292° |
| 2026-04-24 16:55 | 22.43392 | -81.64312 | 16219 ft | 368 kts | 292° |
| 2026-04-24 16:56 | 22.44414 | -81.66802 | 15376 ft | 356 kts | 292° |
| 2026-04-24 16:56 | 22.45403 | -81.69213 | 14550 ft | 346 kts | 292° |
| 2026-04-24 16:56 | 22.46363 | -81.71556 | 13901 ft | 335 kts | 292° |
| 2026-04-24 16:56 | 22.47282 | -81.73800 | 13388 ft | 319 kts | 292° |
| 2026-04-24 16:57 | 22.48163 | -81.75948 | 12867 ft | 306 kts | 292° |
| 2026-04-24 16:57 | 22.49008 | -81.78017 | 12365 ft | 296 kts | 292° |
| 2026-04-24 16:57 | 22.49828 | -81.80021 | 11933 ft | 288 kts | 293° |
| 2026-04-24 16:57 | 22.50621 | -81.81965 | 11529 ft | 285 kts | 292° |
| 2026-04-24 16:58 | 22.51423 | -81.83925 | 11166 ft | 285 kts | 292° |
| 2026-04-24 16:58 | 22.52225 | -81.85886 | 10808 ft | 285 kts | 292° |
| 2026-04-24 16:58 | 22.53023 | -81.87842 | 10445 ft | 284 kts | 292° |
| 2026-04-24 16:58 | 22.53819 | -81.89791 | 10095 ft | 283 kts | 293° |
| 2026-04-24 16:59 | 22.54613 | -81.91738 | 9734 ft | 282 kts | 292° |
| 2026-04-24 16:59 | 22.55404 | -81.93673 | 9346 ft | 280 kts | 293° |
| 2026-04-24 16:59 | 22.56961 | -81.97493 | 8597 ft | 279 kts | 292° |
| 2026-04-24 17:00 | 22.57743 | -81.99415 | 8223 ft | 279 kts | 293° |
| 2026-04-24 17:00 | 22.59306 | -82.03255 | 7495 ft | 279 kts | 293° |
| 2026-04-24 17:00 | 22.60083 | -82.05175 | 7133 ft | 279 kts | 293° |
| 2026-04-24 17:01 | 22.61651 | -82.09013 | 6425 ft | 279 kts | 293° |
| 2026-04-24 17:01 | 22.62429 | -82.10932 | 6056 ft | 278 kts | 294° |
| 2026-04-24 17:02 | 22.63965 | -82.14715 | 5321 ft | 278 kts | 294° |
| 2026-04-24 17:02 | 22.64733 | -82.16602 | 4965 ft | 279 kts | 294° |
| 2026-04-24 17:02 | 22.65507 | -82.18522 | 4600 ft | 278 kts | 295° |
| 2026-04-24 17:02 | 22.66288 | -82.20439 | 4225 ft | 278 kts | 295° |
| 2026-04-24 17:03 | 22.67889 | -82.24245 | 3517 ft | 278 kts | 296° |
| 2026-04-24 17:03 | 22.68695 | -82.26140 | 3282 ft | 277 kts | 295° |
| 2026-04-24 17:03 | 22.69494 | -82.28055 | 3057 ft | 280 kts | 295° |
| 2026-04-24 17:04 | 22.70287 | -82.29922 | 2975 ft | 263 kts | 295° |
| 2026-04-24 17:04 | 22.71771 | -82.33375 | 2975 ft | 250 kts | 295° |
| 2026-04-24 17:04 | 22.72497 | -82.35063 | 2973 ft | 246 kts | 296° |
| 2026-04-24 17:05 | 22.73219 | -82.36759 | 2987 ft | 250 kts | 295° |
| 2026-04-24 17:05 | 22.73940 | -82.38460 | 2980 ft | 245 kts | 294° |
| 2026-04-24 17:05 | 22.75311 | -82.41670 | 2973 ft | 226 kts | 296° |
| 2026-04-24 17:06 | 22.75972 | -82.43205 | 2988 ft | 225 kts | 295° |
| 2026-04-24 17:06 | 22.77261 | -82.46246 | 2982 ft | 222 kts | 296° |
| 2026-04-24 17:06 | 22.77920 | -82.47762 | 2976 ft | 225 kts | 295° |
| 2026-04-24 17:07 | 22.78343 | -82.48768 | 2972 ft | 217 kts | 295° |
| 2026-04-24 17:07 | 22.79149 | -82.50672 | 2980 ft | 199 kts | 297° |
| 2026-04-24 17:07 | 22.80976 | -82.52626 | 2979 ft | 179 kts | 329° |
| 2026-04-24 17:08 | 22.82987 | -82.54240 | 2725 ft | 177 kts | 326° |
| 2026-04-24 17:08 | 22.83972 | -82.54991 | 2496 ft | 174 kts | 327° |
| 2026-04-24 17:08 | 22.84969 | -82.55740 | 2253 ft | 174 kts | 327° |
| 2026-04-24 17:09 | 22.87112 | -82.56643 | 1982 ft | 157 kts | 6° |
| 2026-04-24 17:09 | 22.89039 | -82.55727 | 1983 ft | 152 kts | 49° |
| 2026-04-24 17:10 | 22.89642 | -82.54851 | 1991 ft | 145 kts | 59° |
| 2026-04-24 17:10 | 22.91316 | -82.52340 | 2005 ft | 127 kts | 60° |
| 2026-04-24 17:11 | 22.92950 | -82.49891 | 1776 ft | 133 kts | 57° |
| 2026-04-24 17:12 | 22.95609 | -82.45909 | 946 ft | 127 kts | 54° |